sensor_id;sensor_type;location;lat;lon;timestamp;P1;durP1;ratioP1;P2;durP2;ratioP2
10721;SDS011;5412;59.450;18.124;2022-08-19T00:01:25;39.10;;;17.92;;
10721;SDS011;5412;59.450;18.124;2022-08-19T00:03:54;31.08;;;15.98;;
10721;SDS011;5412;59.450;18.124;2022-08-19T00:06:20;29.88;;;16.38;;
10721;SDS011;5412;59.450;18.124;2022-08-19T00:08:45;53.63;;;18.33;;
10721;SDS011;5412;59.450;18.124;2022-08-19T00:11:11;56.17;;;18.15;;
10721;SDS011;5412;59.450;18.124;2022-08-19T00:13:38;44.35;;;19.58;;
10721;SDS011;5412;59.450;18.124;2022-08-19T00:16:05;33.58;;;18.52;;
10721;SDS011;5412;59.450;18.124;2022-08-19T00:18:32;31.52;;;17.77;;
10721;SDS011;5412;59.450;18.124;2022-08-19T00:20:58;34.67;;;19.42;;
10721;SDS011;5412;59.450;18.124;2022-08-19T00:23:24;53.25;;;21.08;;
10721;SDS011;5412;59.450;18.124;2022-08-19T00:25:51;39.15;;;22.35;;
10721;SDS011;5412;59.450;18.124;2022-08-19T00:28:17;40.60;;;21.20;;
10721;SDS011;5412;59.450;18.124;2022-08-19T00:30:43;36.67;;;22.00;;
10721;SDS011;5412;59.450;18.124;2022-08-19T00:33:08;37.67;;;21.63;;
10721;SDS011;5412;59.450;18.124;2022-08-19T00:35:34;37.53;;;21.90;;
10721;SDS011;5412;59.450;18.124;2022-08-19T00:38:00;44.45;;;23.60;;
10721;SDS011;5412;59.450;18.124;2022-08-19T00:40:26;36.85;;;22.65;;
10721;SDS011;5412;59.450;18.124;2022-08-19T00:42:52;37.22;;;23.23;;
10721;SDS011;5412;59.450;18.124;2022-08-19T00:45:22;40.35;;;23.38;;
10721;SDS011;5412;59.450;18.124;2022-08-19T00:47:49;44.92;;;25.58;;
10721;SDS011;5412;59.450;18.124;2022-08-19T00:50:15;38.78;;;23.55;;
10721;SDS011;5412;59.450;18.124;2022-08-19T00:52:43;38.38;;;23.77;;
10721;SDS011;5412;59.450;18.124;2022-08-19T00:55:16;32.95;;;22.30;;
10721;SDS011;5412;59.450;18.124;2022-08-19T00:57:50;33.63;;;21.33;;
10721;SDS011;5412;59.450;18.124;2022-08-19T01:00:19;31.27;;;19.58;;
10721;SDS011;5412;59.450;18.124;2022-08-19T01:02:46;35.03;;;23.17;;
10721;SDS011;5412;59.450;18.124;2022-08-19T01:05:17;30.52;;;20.75;;
10721;SDS011;5412;59.450;18.124;2022-08-19T01:07:46;29.25;;;20.23;;
10721;SDS011;5412;59.450;18.124;2022-08-19T01:10:16;29.20;;;20.38;;
10721;SDS011;5412;59.450;18.124;2022-08-19T01:12:47;29.35;;;20.92;;
10721;SDS011;5412;59.450;18.124;2022-08-19T01:15:16;28.38;;;20.63;;
10721;SDS011;5412;59.450;18.124;2022-08-19T01:17:45;28.05;;;20.70;;
10721;SDS011;5412;59.450;18.124;2022-08-19T01:20:12;27.92;;;17.35;;
10721;SDS011;5412;59.450;18.124;2022-08-19T01:22:43;23.45;;;18.02;;
10721;SDS011;5412;59.450;18.124;2022-08-19T01:25:12;29.08;;;19.77;;
10721;SDS011;5412;59.450;18.124;2022-08-19T01:27:40;23.02;;;18.38;;
10721;SDS011;5412;59.450;18.124;2022-08-19T01:30:13;26.27;;;18.65;;
10721;SDS011;5412;59.450;18.124;2022-08-19T01:32:45;23.13;;;18.05;;
10721;SDS011;5412;59.450;18.124;2022-08-19T01:35:12;27.88;;;18.02;;
10721;SDS011;5412;59.450;18.124;2022-08-19T01:37:41;22.95;;;17.05;;
10721;SDS011;5412;59.450;18.124;2022-08-19T01:40:29;23.60;;;17.30;;
10721;SDS011;5412;59.450;18.124;2022-08-19T01:42:58;20.50;;;16.38;;
10721;SDS011;5412;59.450;18.124;2022-08-19T01:45:25;26.40;;;17.67;;
10721;SDS011;5412;59.450;18.124;2022-08-19T01:47:53;23.55;;;18.65;;
10721;SDS011;5412;59.450;18.124;2022-08-19T01:50:20;24.27;;;18.02;;
10721;SDS011;5412;59.450;18.124;2022-08-19T01:52:46;25.85;;;17.70;;
10721;SDS011;5412;59.450;18.124;2022-08-19T01:55:13;24.10;;;19.20;;
10721;SDS011;5412;59.450;18.124;2022-08-19T01:57:42;26.30;;;17.88;;
10721;SDS011;5412;59.450;18.124;2022-08-19T02:00:13;23.67;;;18.02;;
10721;SDS011;5412;59.450;18.124;2022-08-19T02:02:40;22.08;;;16.52;;
10721;SDS011;5412;59.450;18.124;2022-08-19T02:05:07;22.77;;;17.25;;
10721;SDS011;5412;59.450;18.124;2022-08-19T02:07:33;23.67;;;18.40;;
10721;SDS011;5412;59.450;18.124;2022-08-19T02:10:03;22.20;;;17.42;;
10721;SDS011;5412;59.450;18.124;2022-08-19T02:12:34;20.73;;;17.25;;
10721;SDS011;5412;59.450;18.124;2022-08-19T02:15:00;20.17;;;15.65;;
10721;SDS011;5412;59.450;18.124;2022-08-19T02:17:27;24.08;;;16.63;;
10721;SDS011;5412;59.450;18.124;2022-08-19T02:19:54;24.35;;;17.70;;
10721;SDS011;5412;59.450;18.124;2022-08-19T02:22:22;22.70;;;17.02;;
10721;SDS011;5412;59.450;18.124;2022-08-19T02:24:50;23.42;;;17.42;;
10721;SDS011;5412;59.450;18.124;2022-08-19T02:27:16;19.15;;;15.85;;
10721;SDS011;5412;59.450;18.124;2022-08-19T02:29:42;24.13;;;17.20;;
10721;SDS011;5412;59.450;18.124;2022-08-19T02:32:07;25.67;;;18.38;;
10721;SDS011;5412;59.450;18.124;2022-08-19T02:34:33;26.17;;;19.30;;
10721;SDS011;5412;59.450;18.124;2022-08-19T02:36:59;23.10;;;18.05;;
10721;SDS011;5412;59.450;18.124;2022-08-19T02:39:25;25.95;;;18.52;;
10721;SDS011;5412;59.450;18.124;2022-08-19T02:41:51;25.75;;;18.65;;
10721;SDS011;5412;59.450;18.124;2022-08-19T02:44:18;24.45;;;17.15;;
10721;SDS011;5412;59.450;18.124;2022-08-19T02:46:44;24.13;;;17.88;;
10721;SDS011;5412;59.450;18.124;2022-08-19T02:49:12;21.98;;;16.67;;
10721;SDS011;5412;59.450;18.124;2022-08-19T02:51:41;21.38;;;14.98;;
10721;SDS011;5412;59.450;18.124;2022-08-19T02:54:10;21.38;;;16.50;;
10721;SDS011;5412;59.450;18.124;2022-08-19T02:56:37;23.92;;;17.95;;
10721;SDS011;5412;59.450;18.124;2022-08-19T02:59:05;20.75;;;17.30;;
10721;SDS011;5412;59.450;18.124;2022-08-19T03:01:33;27.52;;;18.83;;
10721;SDS011;5412;59.450;18.124;2022-08-19T03:04:01;19.48;;;16.58;;
10721;SDS011;5412;59.450;18.124;2022-08-19T03:06:29;28.67;;;22.13;;
10721;SDS011;5412;59.450;18.124;2022-08-19T03:08:55;22.17;;;17.50;;
10721;SDS011;5412;59.450;18.124;2022-08-19T03:11:23;24.67;;;18.35;;
10721;SDS011;5412;59.450;18.124;2022-08-19T03:13:52;27.45;;;18.52;;
10721;SDS011;5412;59.450;18.124;2022-08-19T03:16:19;27.23;;;18.13;;
10721;SDS011;5412;59.450;18.124;2022-08-19T03:18:46;25.33;;;18.30;;
10721;SDS011;5412;59.450;18.124;2022-08-19T03:21:16;21.48;;;17.50;;
10721;SDS011;5412;59.450;18.124;2022-08-19T03:23:43;22.25;;;16.92;;
10721;SDS011;5412;59.450;18.124;2022-08-19T03:26:09;26.75;;;19.27;;
10721;SDS011;5412;59.450;18.124;2022-08-19T03:28:35;24.15;;;17.38;;
10721;SDS011;5412;59.450;18.124;2022-08-19T03:31:05;25.80;;;18.85;;
10721;SDS011;5412;59.450;18.124;2022-08-19T03:33:41;21.25;;;18.05;;
10721;SDS011;5412;59.450;18.124;2022-08-19T03:38:36;24.52;;;17.83;;
10721;SDS011;5412;59.450;18.124;2022-08-19T03:41:07;27.05;;;19.27;;
10721;SDS011;5412;59.450;18.124;2022-08-19T03:43:40;25.60;;;17.83;;
10721;SDS011;5412;59.450;18.124;2022-08-19T03:46:11;27.25;;;18.92;;
10721;SDS011;5412;59.450;18.124;2022-08-19T03:48:40;25.45;;;17.45;;
10721;SDS011;5412;59.450;18.124;2022-08-19T03:51:07;22.95;;;17.35;;
10721;SDS011;5412;59.450;18.124;2022-08-19T03:53:39;24.30;;;17.42;;
10721;SDS011;5412;59.450;18.124;2022-08-19T03:56:06;26.30;;;18.13;;
10721;SDS011;5412;59.450;18.124;2022-08-19T03:58:33;27.50;;;19.58;;
10721;SDS011;5412;59.450;18.124;2022-08-19T04:00:59;29.73;;;19.02;;
10721;SDS011;5412;59.450;18.124;2022-08-19T04:03:25;26.40;;;18.95;;
10721;SDS011;5412;59.450;18.124;2022-08-19T04:05:52;27.45;;;19.48;;
10721;SDS011;5412;59.450;18.124;2022-08-19T04:08:19;23.77;;;18.45;;
10721;SDS011;5412;59.450;18.124;2022-08-19T04:10:45;23.40;;;18.08;;
10721;SDS011;5412;59.450;18.124;2022-08-19T04:13:12;27.38;;;18.52;;
10721;SDS011;5412;59.450;18.124;2022-08-19T04:15:40;25.75;;;19.02;;
10721;SDS011;5412;59.450;18.124;2022-08-19T04:18:07;22.85;;;18.38;;
10721;SDS011;5412;59.450;18.124;2022-08-19T04:20:45;26.50;;;19.38;;
10721;SDS011;5412;59.450;18.124;2022-08-19T04:23:13;25.70;;;17.45;;
10721;SDS011;5412;59.450;18.124;2022-08-19T04:25:41;22.73;;;16.40;;
10721;SDS011;5412;59.450;18.124;2022-08-19T04:28:09;24.63;;;15.68;;
10721;SDS011;5412;59.450;18.124;2022-08-19T04:30:37;23.58;;;17.77;;
10721;SDS011;5412;59.450;18.124;2022-08-19T04:33:04;26.38;;;18.10;;
10721;SDS011;5412;59.450;18.124;2022-08-19T04:35:34;24.65;;;18.48;;
10721;SDS011;5412;59.450;18.124;2022-08-19T04:38:04;23.88;;;17.63;;
10721;SDS011;5412;59.450;18.124;2022-08-19T04:40:30;23.42;;;17.80;;
10721;SDS011;5412;59.450;18.124;2022-08-19T04:43:15;24.25;;;18.42;;
10721;SDS011;5412;59.450;18.124;2022-08-19T04:45:42;28.85;;;18.67;;
10721;SDS011;5412;59.450;18.124;2022-08-19T04:48:09;25.45;;;17.23;;
10721;SDS011;5412;59.450;18.124;2022-08-19T04:50:34;23.25;;;17.38;;
10721;SDS011;5412;59.450;18.124;2022-08-19T04:53:00;22.63;;;18.08;;
10721;SDS011;5412;59.450;18.124;2022-08-19T04:55:26;23.15;;;16.60;;
10721;SDS011;5412;59.450;18.124;2022-08-19T04:57:51;24.55;;;18.10;;
10721;SDS011;5412;59.450;18.124;2022-08-19T05:00:18;24.30;;;17.50;;
10721;SDS011;5412;59.450;18.124;2022-08-19T05:02:43;24.42;;;16.23;;
10721;SDS011;5412;59.450;18.124;2022-08-19T05:05:09;25.15;;;16.92;;
10721;SDS011;5412;59.450;18.124;2022-08-19T05:07:35;23.48;;;17.38;;
10721;SDS011;5412;59.450;18.124;2022-08-19T05:10:01;25.15;;;17.13;;
10721;SDS011;5412;59.450;18.124;2022-08-19T05:12:28;20.80;;;16.73;;
10721;SDS011;5412;59.450;18.124;2022-08-19T05:14:53;21.13;;;15.80;;
10721;SDS011;5412;59.450;18.124;2022-08-19T05:17:21;25.98;;;15.68;;
10721;SDS011;5412;59.450;18.124;2022-08-19T05:19:47;18.75;;;15.38;;
10721;SDS011;5412;59.450;18.124;2022-08-19T05:22:31;19.73;;;15.18;;
10721;SDS011;5412;59.450;18.124;2022-08-19T05:24:59;19.67;;;14.10;;
10721;SDS011;5412;59.450;18.124;2022-08-19T05:27:38;17.67;;;14.98;;
10721;SDS011;5412;59.450;18.124;2022-08-19T05:30:04;17.55;;;14.65;;
10721;SDS011;5412;59.450;18.124;2022-08-19T05:32:31;17.42;;;14.27;;
10721;SDS011;5412;59.450;18.124;2022-08-19T05:34:56;21.63;;;15.35;;
10721;SDS011;5412;59.450;18.124;2022-08-19T05:37:22;19.98;;;14.52;;
10721;SDS011;5412;59.450;18.124;2022-08-19T05:39:48;18.48;;;14.07;;
10721;SDS011;5412;59.450;18.124;2022-08-19T05:42:14;20.38;;;13.35;;
10721;SDS011;5412;59.450;18.124;2022-08-19T05:44:41;16.40;;;13.85;;
10721;SDS011;5412;59.450;18.124;2022-08-19T05:47:09;17.83;;;14.25;;
10721;SDS011;5412;59.450;18.124;2022-08-19T05:49:37;16.52;;;13.35;;
10721;SDS011;5412;59.450;18.124;2022-08-19T05:52:06;18.10;;;14.25;;
10721;SDS011;5412;59.450;18.124;2022-08-19T05:54:33;15.82;;;13.65;;
10721;SDS011;5412;59.450;18.124;2022-08-19T05:57:01;16.25;;;12.05;;
10721;SDS011;5412;59.450;18.124;2022-08-19T05:59:27;16.20;;;12.80;;
10721;SDS011;5412;59.450;18.124;2022-08-19T06:01:53;15.93;;;12.35;;
10721;SDS011;5412;59.450;18.124;2022-08-19T06:04:21;18.48;;;12.50;;
10721;SDS011;5412;59.450;18.124;2022-08-19T06:06:48;16.08;;;12.35;;
10721;SDS011;5412;59.450;18.124;2022-08-19T06:09:17;13.02;;;11.63;;
10721;SDS011;5412;59.450;18.124;2022-08-19T06:11:44;17.17;;;13.43;;
10721;SDS011;5412;59.450;18.124;2022-08-19T06:14:14;15.98;;;12.40;;
10721;SDS011;5412;59.450;18.124;2022-08-19T06:16:43;16.25;;;12.05;;
10721;SDS011;5412;59.450;18.124;2022-08-19T06:19:13;17.27;;;11.65;;
10721;SDS011;5412;59.450;18.124;2022-08-19T06:21:42;14.27;;;11.18;;
10721;SDS011;5412;59.450;18.124;2022-08-19T06:24:10;16.98;;;11.20;;
10721;SDS011;5412;59.450;18.124;2022-08-19T06:26:39;14.63;;;11.35;;
10721;SDS011;5412;59.450;18.124;2022-08-19T06:29:06;17.52;;;10.30;;
10721;SDS011;5412;59.450;18.124;2022-08-19T06:31:34;12.70;;;11.40;;
10721;SDS011;5412;59.450;18.124;2022-08-19T06:34:01;15.77;;;10.40;;
10721;SDS011;5412;59.450;18.124;2022-08-19T06:36:31;16.13;;;10.93;;
10721;SDS011;5412;59.450;18.124;2022-08-19T06:38:59;11.40;;;10.20;;
10721;SDS011;5412;59.450;18.124;2022-08-19T06:41:28;13.52;;;10.23;;
10721;SDS011;5412;59.450;18.124;2022-08-19T06:43:55;12.65;;;10.27;;
10721;SDS011;5412;59.450;18.124;2022-08-19T06:46:21;14.57;;;10.35;;
10721;SDS011;5412;59.450;18.124;2022-08-19T06:48:47;11.23;;;9.60;;
10721;SDS011;5412;59.450;18.124;2022-08-19T06:51:14;12.20;;;10.10;;
10721;SDS011;5412;59.450;18.124;2022-08-19T06:53:43;14.05;;;9.45;;
10721;SDS011;5412;59.450;18.124;2022-08-19T06:56:12;12.57;;;10.02;;
10721;SDS011;5412;59.450;18.124;2022-08-19T06:58:39;12.98;;;9.63;;
10721;SDS011;5412;59.450;18.124;2022-08-19T07:01:05;13.05;;;9.63;;
10721;SDS011;5412;59.450;18.124;2022-08-19T07:03:31;11.20;;;9.65;;
10721;SDS011;5412;59.450;18.124;2022-08-19T07:06:03;13.50;;;9.43;;
10721;SDS011;5412;59.450;18.124;2022-08-19T07:08:33;11.40;;;8.57;;
10721;SDS011;5412;59.450;18.124;2022-08-19T07:11:00;12.10;;;9.00;;
10721;SDS011;5412;59.450;18.124;2022-08-19T07:13:25;12.77;;;9.40;;
10721;SDS011;5412;59.450;18.124;2022-08-19T07:15:51;11.32;;;9.32;;
10721;SDS011;5412;59.450;18.124;2022-08-19T07:18:18;11.23;;;9.40;;
10721;SDS011;5412;59.450;18.124;2022-08-19T07:20:46;11.85;;;9.13;;
10721;SDS011;5412;59.450;18.124;2022-08-19T07:23:13;12.40;;;9.05;;
10721;SDS011;5412;59.450;18.124;2022-08-19T07:25:38;11.05;;;8.70;;
10721;SDS011;5412;59.450;18.124;2022-08-19T07:28:04;11.70;;;9.25;;
10721;SDS011;5412;59.450;18.124;2022-08-19T07:30:35;12.38;;;8.57;;
10721;SDS011;5412;59.450;18.124;2022-08-19T07:33:02;11.27;;;8.55;;
10721;SDS011;5412;59.450;18.124;2022-08-19T07:35:28;16.73;;;8.90;;
10721;SDS011;5412;59.450;18.124;2022-08-19T07:37:57;11.23;;;8.07;;
10721;SDS011;5412;59.450;18.124;2022-08-19T07:40:23;11.15;;;8.43;;
10721;SDS011;5412;59.450;18.124;2022-08-19T07:42:49;11.40;;;7.63;;
10721;SDS011;5412;59.450;18.124;2022-08-19T07:45:14;10.43;;;8.63;;
10721;SDS011;5412;59.450;18.124;2022-08-19T07:47:41;12.18;;;8.18;;
10721;SDS011;5412;59.450;18.124;2022-08-19T07:50:08;15.07;;;8.07;;
10721;SDS011;5412;59.450;18.124;2022-08-19T07:52:36;14.13;;;8.20;;
10721;SDS011;5412;59.450;18.124;2022-08-19T07:55:04;10.10;;;6.93;;
10721;SDS011;5412;59.450;18.124;2022-08-19T07:57:35;11.30;;;7.47;;
10721;SDS011;5412;59.450;18.124;2022-08-19T08:00:01;12.32;;;7.45;;
10721;SDS011;5412;59.450;18.124;2022-08-19T08:02:28;11.40;;;7.15;;
10721;SDS011;5412;59.450;18.124;2022-08-19T08:04:54;14.57;;;7.35;;
10721;SDS011;5412;59.450;18.124;2022-08-19T08:07:38;15.85;;;7.20;;
10721;SDS011;5412;59.450;18.124;2022-08-19T08:10:22;9.85;;;6.38;;
10721;SDS011;5412;59.450;18.124;2022-08-19T08:12:48;10.13;;;6.53;;
10721;SDS011;5412;59.450;18.124;2022-08-19T08:15:14;10.70;;;7.03;;
10721;SDS011;5412;59.450;18.124;2022-08-19T08:17:43;10.23;;;6.90;;
10721;SDS011;5412;59.450;18.124;2022-08-19T08:20:11;9.73;;;6.80;;
10721;SDS011;5412;59.450;18.124;2022-08-19T08:22:41;10.75;;;6.38;;
10721;SDS011;5412;59.450;18.124;2022-08-19T08:25:27;8.00;;;6.72;;
10721;SDS011;5412;59.450;18.124;2022-08-19T08:27:52;10.00;;;6.57;;
10721;SDS011;5412;59.450;18.124;2022-08-19T08:30:19;12.02;;;7.38;;
10721;SDS011;5412;59.450;18.124;2022-08-19T08:32:48;11.35;;;7.30;;
10721;SDS011;5412;59.450;18.124;2022-08-19T08:35:15;9.93;;;7.15;;
10721;SDS011;5412;59.450;18.124;2022-08-19T08:37:46;11.48;;;6.97;;
10721;SDS011;5412;59.450;18.124;2022-08-19T08:43:13;13.95;;;6.43;;
10721;SDS011;5412;59.450;18.124;2022-08-19T08:46:09;11.38;;;6.28;;
10721;SDS011;5412;59.450;18.124;2022-08-19T08:51:32;8.48;;;6.75;;
10721;SDS011;5412;59.450;18.124;2022-08-19T08:54:04;14.20;;;6.60;;
10721;SDS011;5412;59.450;18.124;2022-08-19T08:56:32;11.60;;;5.82;;
10721;SDS011;5412;59.450;18.124;2022-08-19T08:59:00;9.40;;;6.00;;
10721;SDS011;5412;59.450;18.124;2022-08-19T09:01:31;10.82;;;6.32;;
10721;SDS011;5412;59.450;18.124;2022-08-19T09:03:57;8.00;;;5.55;;
10721;SDS011;5412;59.450;18.124;2022-08-19T09:09:04;8.20;;;5.78;;
10721;SDS011;5412;59.450;18.124;2022-08-19T09:11:51;8.85;;;5.78;;
10721;SDS011;5412;59.450;18.124;2022-08-19T09:17:28;8.07;;;5.53;;
10721;SDS011;5412;59.450;18.124;2022-08-19T09:22:33;7.95;;;5.40;;
10721;SDS011;5412;59.450;18.124;2022-08-19T09:25:00;11.65;;;5.90;;
10721;SDS011;5412;59.450;18.124;2022-08-19T09:27:27;9.40;;;5.95;;
10721;SDS011;5412;59.450;18.124;2022-08-19T09:29:53;7.78;;;5.88;;
10721;SDS011;5412;59.450;18.124;2022-08-19T09:32:20;11.13;;;5.82;;
10721;SDS011;5412;59.450;18.124;2022-08-19T09:34:46;11.60;;;6.15;;
10721;SDS011;5412;59.450;18.124;2022-08-19T09:37:12;12.27;;;5.30;;
10721;SDS011;5412;59.450;18.124;2022-08-19T09:39:39;10.15;;;5.90;;
10721;SDS011;5412;59.450;18.124;2022-08-19T09:42:06;11.70;;;5.53;;
10721;SDS011;5412;59.450;18.124;2022-08-19T09:44:36;7.00;;;5.70;;
10721;SDS011;5412;59.450;18.124;2022-08-19T09:47:03;11.32;;;6.03;;
10721;SDS011;5412;59.450;18.124;2022-08-19T09:49:29;10.63;;;5.45;;
10721;SDS011;5412;59.450;18.124;2022-08-19T09:51:56;7.88;;;5.07;;
10721;SDS011;5412;59.450;18.124;2022-08-19T09:54:21;9.88;;;6.03;;
10721;SDS011;5412;59.450;18.124;2022-08-19T09:56:48;11.40;;;5.22;;
10721;SDS011;5412;59.450;18.124;2022-08-19T09:59:14;12.40;;;5.70;;
10721;SDS011;5412;59.450;18.124;2022-08-19T10:01:39;9.27;;;5.38;;
10721;SDS011;5412;59.450;18.124;2022-08-19T10:04:05;6.68;;;5.18;;
10721;SDS011;5412;59.450;18.124;2022-08-19T10:06:33;10.23;;;5.80;;
10721;SDS011;5412;59.450;18.124;2022-08-19T10:09:02;7.43;;;5.25;;
10721;SDS011;5412;59.450;18.124;2022-08-19T10:11:31;9.23;;;5.40;;
10721;SDS011;5412;59.450;18.124;2022-08-19T10:13:58;6.90;;;5.38;;
10721;SDS011;5412;59.450;18.124;2022-08-19T10:16:24;7.82;;;4.97;;
10721;SDS011;5412;59.450;18.124;2022-08-19T10:18:50;7.50;;;5.25;;
10721;SDS011;5412;59.450;18.124;2022-08-19T10:21:18;12.25;;;5.20;;
10721;SDS011;5412;59.450;18.124;2022-08-19T10:23:47;8.90;;;5.28;;
10721;SDS011;5412;59.450;18.124;2022-08-19T10:26:15;9.88;;;5.47;;
10721;SDS011;5412;59.450;18.124;2022-08-19T10:28:43;8.18;;;5.43;;
10721;SDS011;5412;59.450;18.124;2022-08-19T10:31:11;11.48;;;5.25;;
10721;SDS011;5412;59.450;18.124;2022-08-19T10:33:38;7.25;;;5.35;;
10721;SDS011;5412;59.450;18.124;2022-08-19T10:36:09;8.85;;;5.00;;
10721;SDS011;5412;59.450;18.124;2022-08-19T10:38:36;8.13;;;4.90;;
10721;SDS011;5412;59.450;18.124;2022-08-19T10:41:10;7.07;;;5.00;;
10721;SDS011;5412;59.450;18.124;2022-08-19T10:43:37;10.80;;;5.18;;
10721;SDS011;5412;59.450;18.124;2022-08-19T10:46:03;8.25;;;5.10;;
10721;SDS011;5412;59.450;18.124;2022-08-19T10:48:30;8.02;;;5.57;;
10721;SDS011;5412;59.450;18.124;2022-08-19T10:50:57;7.97;;;4.78;;
10721;SDS011;5412;59.450;18.124;2022-08-19T10:53:41;15.60;;;5.00;;
10721;SDS011;5412;59.450;18.124;2022-08-19T10:56:06;8.20;;;5.30;;
10721;SDS011;5412;59.450;18.124;2022-08-19T10:58:50;8.55;;;4.90;;
10721;SDS011;5412;59.450;18.124;2022-08-19T11:01:16;8.57;;;4.60;;
10721;SDS011;5412;59.450;18.124;2022-08-19T11:03:42;7.03;;;5.03;;
10721;SDS011;5412;59.450;18.124;2022-08-19T11:06:07;13.05;;;5.25;;
10721;SDS011;5412;59.450;18.124;2022-08-19T11:08:34;9.00;;;5.03;;
10721;SDS011;5412;59.450;18.124;2022-08-19T11:11:02;10.85;;;4.70;;
10721;SDS011;5412;59.450;18.124;2022-08-19T11:13:33;8.45;;;4.88;;
10721;SDS011;5412;59.450;18.124;2022-08-19T11:16:04;8.70;;;4.60;;
10721;SDS011;5412;59.450;18.124;2022-08-19T11:18:36;8.20;;;5.00;;
10721;SDS011;5412;59.450;18.124;2022-08-19T11:21:08;8.20;;;5.13;;
10721;SDS011;5412;59.450;18.124;2022-08-19T11:23:35;7.00;;;4.70;;
10721;SDS011;5412;59.450;18.124;2022-08-19T11:26:01;8.07;;;5.03;;
10721;SDS011;5412;59.450;18.124;2022-08-19T11:28:26;7.03;;;5.22;;
10721;SDS011;5412;59.450;18.124;2022-08-19T11:30:53;5.97;;;4.80;;
10721;SDS011;5412;59.450;18.124;2022-08-19T11:33:18;10.70;;;5.40;;
10721;SDS011;5412;59.450;18.124;2022-08-19T11:35:44;8.48;;;4.90;;
10721;SDS011;5412;59.450;18.124;2022-08-19T11:38:10;7.53;;;4.80;;
10721;SDS011;5412;59.450;18.124;2022-08-19T11:40:36;9.10;;;4.82;;
10721;SDS011;5412;59.450;18.124;2022-08-19T11:43:02;9.77;;;5.03;;
10721;SDS011;5412;59.450;18.124;2022-08-19T11:45:28;13.80;;;5.57;;
10721;SDS011;5412;59.450;18.124;2022-08-19T11:47:55;7.25;;;4.95;;
10721;SDS011;5412;59.450;18.124;2022-08-19T11:50:21;9.80;;;4.60;;
10721;SDS011;5412;59.450;18.124;2022-08-19T11:52:48;8.35;;;4.90;;
10721;SDS011;5412;59.450;18.124;2022-08-19T11:55:14;5.65;;;4.90;;
10721;SDS011;5412;59.450;18.124;2022-08-19T11:57:40;5.72;;;4.82;;
10721;SDS011;5412;59.450;18.124;2022-08-19T12:00:07;10.27;;;5.28;;
10721;SDS011;5412;59.450;18.124;2022-08-19T12:02:36;5.68;;;5.03;;
10721;SDS011;5412;59.450;18.124;2022-08-19T12:05:02;9.05;;;5.45;;
10721;SDS011;5412;59.450;18.124;2022-08-19T12:07:28;10.52;;;5.28;;
10721;SDS011;5412;59.450;18.124;2022-08-19T12:09:56;10.50;;;5.13;;
10721;SDS011;5412;59.450;18.124;2022-08-19T12:12:21;14.63;;;5.68;;
10721;SDS011;5412;59.450;18.124;2022-08-19T12:14:49;6.85;;;5.68;;
10721;SDS011;5412;59.450;18.124;2022-08-19T12:17:21;6.60;;;5.57;;
10721;SDS011;5412;59.450;18.124;2022-08-19T12:19:47;12.88;;;5.80;;
10721;SDS011;5412;59.450;18.124;2022-08-19T12:22:13;8.20;;;5.72;;
10721;SDS011;5412;59.450;18.124;2022-08-19T12:24:39;8.02;;;6.22;;
10721;SDS011;5412;59.450;18.124;2022-08-19T12:27:04;11.23;;;5.50;;
10721;SDS011;5412;59.450;18.124;2022-08-19T12:29:30;12.20;;;5.85;;
10721;SDS011;5412;59.450;18.124;2022-08-19T12:31:57;16.20;;;6.53;;
10721;SDS011;5412;59.450;18.124;2022-08-19T12:34:27;10.25;;;6.20;;
10721;SDS011;5412;59.450;18.124;2022-08-19T12:36:55;9.77;;;5.75;;
10721;SDS011;5412;59.450;18.124;2022-08-19T12:39:22;6.88;;;5.75;;
10721;SDS011;5412;59.450;18.124;2022-08-19T12:41:48;13.98;;;6.03;;
10721;SDS011;5412;59.450;18.124;2022-08-19T12:44:14;11.00;;;6.28;;
10721;SDS011;5412;59.450;18.124;2022-08-19T12:46:40;9.27;;;6.40;;
10721;SDS011;5412;59.450;18.124;2022-08-19T12:49:05;8.98;;;5.72;;
10721;SDS011;5412;59.450;18.124;2022-08-19T12:51:31;8.38;;;5.10;;
10721;SDS011;5412;59.450;18.124;2022-08-19T12:53:57;7.97;;;5.40;;
10721;SDS011;5412;59.450;18.124;2022-08-19T12:56:22;13.07;;;5.50;;
10721;SDS011;5412;59.450;18.124;2022-08-19T12:58:48;11.27;;;5.05;;
10721;SDS011;5412;59.450;18.124;2022-08-19T13:01:15;8.45;;;5.55;;
10721;SDS011;5412;59.450;18.124;2022-08-19T13:03:41;6.85;;;4.50;;
10721;SDS011;5412;59.450;18.124;2022-08-19T13:06:08;10.57;;;5.03;;
10721;SDS011;5412;59.450;18.124;2022-08-19T13:08:34;7.68;;;4.90;;
10721;SDS011;5412;59.450;18.124;2022-08-19T13:11:07;8.60;;;4.95;;
10721;SDS011;5412;59.450;18.124;2022-08-19T13:13:37;6.80;;;5.22;;
10721;SDS011;5412;59.450;18.124;2022-08-19T13:16:06;10.30;;;5.07;;
10721;SDS011;5412;59.450;18.124;2022-08-19T13:18:32;12.40;;;4.68;;
10721;SDS011;5412;59.450;18.124;2022-08-19T13:21:01;8.60;;;5.03;;
10721;SDS011;5412;59.450;18.124;2022-08-19T13:23:31;5.75;;;4.90;;
10721;SDS011;5412;59.450;18.124;2022-08-19T13:25:59;8.48;;;5.50;;
10721;SDS011;5412;59.450;18.124;2022-08-19T13:28:27;6.35;;;4.78;;
10721;SDS011;5412;59.450;18.124;2022-08-19T13:31:14;13.63;;;5.15;;
10721;SDS011;5412;59.450;18.124;2022-08-19T13:33:59;7.38;;;5.00;;
10721;SDS011;5412;59.450;18.124;2022-08-19T13:36:25;7.47;;;5.07;;
10721;SDS011;5412;59.450;18.124;2022-08-19T13:38:51;11.10;;;5.18;;
10721;SDS011;5412;59.450;18.124;2022-08-19T13:41:16;12.65;;;5.45;;
10721;SDS011;5412;59.450;18.124;2022-08-19T13:43:43;11.00;;;4.90;;
10721;SDS011;5412;59.450;18.124;2022-08-19T13:46:10;9.10;;;5.45;;
10721;SDS011;5412;59.450;18.124;2022-08-19T13:48:38;10.80;;;5.30;;
10721;SDS011;5412;59.450;18.124;2022-08-19T13:51:06;7.15;;;4.80;;
10721;SDS011;5412;59.450;18.124;2022-08-19T13:53:34;7.78;;;5.30;;
10721;SDS011;5412;59.450;18.124;2022-08-19T13:56:05;10.38;;;4.90;;
10721;SDS011;5412;59.450;18.124;2022-08-19T13:58:31;9.27;;;4.90;;
10721;SDS011;5412;59.450;18.124;2022-08-19T14:00:57;6.40;;;4.90;;
10721;SDS011;5412;59.450;18.124;2022-08-19T14:03:23;10.20;;;5.40;;
10721;SDS011;5412;59.450;18.124;2022-08-19T14:05:50;7.85;;;5.65;;
10721;SDS011;5412;59.450;18.124;2022-08-19T14:08:15;6.53;;;4.55;;
10721;SDS011;5412;59.450;18.124;2022-08-19T14:10:41;8.02;;;4.90;;
10721;SDS011;5412;59.450;18.124;2022-08-19T14:13:09;6.68;;;5.03;;
10721;SDS011;5412;59.450;18.124;2022-08-19T14:15:35;11.95;;;5.22;;
10721;SDS011;5412;59.450;18.124;2022-08-19T14:18:02;9.93;;;4.93;;
10721;SDS011;5412;59.450;18.124;2022-08-19T14:20:28;9.60;;;4.97;;
10721;SDS011;5412;59.450;18.124;2022-08-19T14:22:53;13.07;;;5.45;;
10721;SDS011;5412;59.450;18.124;2022-08-19T14:25:21;6.07;;;4.72;;
10721;SDS011;5412;59.450;18.124;2022-08-19T14:27:49;12.70;;;5.40;;
10721;SDS011;5412;59.450;18.124;2022-08-19T14:30:16;6.38;;;4.97;;
10721;SDS011;5412;59.450;18.124;2022-08-19T14:32:45;11.00;;;5.18;;
10721;SDS011;5412;59.450;18.124;2022-08-19T14:35:11;7.22;;;5.22;;
10721;SDS011;5412;59.450;18.124;2022-08-19T14:37:39;7.40;;;4.30;;
10721;SDS011;5412;59.450;18.124;2022-08-19T14:40:05;8.90;;;5.57;;
10721;SDS011;5412;59.450;18.124;2022-08-19T14:42:31;13.05;;;5.13;;
10721;SDS011;5412;59.450;18.124;2022-08-19T14:44:58;9.23;;;5.53;;
10721;SDS011;5412;59.450;18.124;2022-08-19T14:47:24;8.50;;;5.40;;
10721;SDS011;5412;59.450;18.124;2022-08-19T14:49:51;8.15;;;5.50;;
10721;SDS011;5412;59.450;18.124;2022-08-19T14:52:17;7.55;;;4.93;;